createdAt,value
2018-12-05T00:00:43.724Z,30.25
2018-12-05T00:03:10.424Z,25.00
2018-12-05T00:05:37.112Z,20.50
2018-12-05T00:08:03.841Z,20.20
2018-12-05T00:10:30.536Z,19.90
2018-12-05T00:12:57.226Z,19.98
2018-12-05T00:15:23.946Z,20.30
2018-12-05T00:17:50.640Z,20.52
2018-12-05T00:20:17.356Z,18.40
2018-12-05T00:22:44.059Z,18.25
2018-12-05T00:25:10.763Z,19.70
2018-12-05T00:27:37.452Z,20.80
2018-12-05T00:30:04.526Z,18.85
2018-12-05T00:32:31.236Z,18.35
2018-12-05T00:34:57.929Z,18.52
2018-12-05T00:37:24.612Z,19.98
2018-12-05T00:39:51.330Z,20.08
2018-12-05T00:42:18.054Z,19.92
2018-12-05T00:44:44.758Z,20.20
2018-12-05T00:47:11.469Z,20.90
2018-12-05T00:49:43.696Z,21.70
2018-12-05T00:52:10.385Z,20.85
2018-12-05T00:54:37.086Z,20.65
2018-12-05T00:57:03.806Z,20.55
2018-12-05T00:59:30.662Z,21.70
2018-12-05T01:01:57.357Z,20.08
2018-12-05T01:04:24.058Z,20.95
2018-12-05T01:06:50.785Z,20.82
2018-12-05T01:09:17.494Z,19.42
2018-12-05T01:11:44.200Z,22.10
2018-12-05T01:14:10.911Z,21.37
2018-12-05T01:16:37.703Z,22.93
2018-12-05T01:19:04.456Z,21.07
2018-12-05T01:21:31.233Z,22.65
2018-12-05T01:23:58.025Z,19.42
2018-12-05T01:26:24.758Z,20.75
2018-12-05T01:28:51.497Z,21.30
2018-12-05T01:31:18.389Z,20.82
2018-12-05T01:33:45.087Z,21.68
2018-12-05T01:36:11.808Z,20.43
2018-12-05T01:38:38.504Z,25.43
2018-12-05T01:41:05.236Z,19.65
2018-12-05T01:43:37.816Z,22.25
2018-12-05T01:46:04.504Z,19.57
2018-12-05T01:48:31.233Z,22.05
2018-12-05T01:50:57.924Z,22.60
2018-12-05T01:53:24.613Z,20.20
2018-12-05T01:55:51.329Z,20.17
2018-12-05T01:58:18.015Z,20.20
2018-12-05T02:00:44.705Z,20.10
2018-12-05T02:03:11.426Z,19.37
2018-12-05T02:05:38.120Z,19.95
2018-12-05T02:08:04.818Z,20.25
2018-12-05T02:10:31.525Z,20.27
2018-12-05T02:12:58.246Z,19.62
2018-12-05T02:15:24.941Z,20.23
2018-12-05T02:17:51.660Z,19.75
2018-12-05T02:20:18.354Z,18.82
2018-12-05T02:22:45.088Z,21.57
2018-12-05T02:25:11.777Z,19.02
2018-12-05T02:27:38.491Z,18.60
2018-12-05T02:30:05.255Z,17.57
2018-12-05T02:32:32.018Z,18.62
2018-12-05T02:34:58.797Z,16.95
2018-12-05T02:37:25.501Z,17.42
2018-12-05T02:39:52.203Z,17.10
2018-12-05T02:42:18.919Z,16.85
2018-12-05T02:44:45.618Z,18.35
2018-12-05T02:47:12.312Z,18.25
2018-12-05T02:49:39.023Z,18.42
2018-12-05T02:52:05.731Z,18.42
2018-12-05T02:54:32.415Z,16.82
2018-12-05T02:56:59.145Z,17.87
2018-12-05T02:59:25.849Z,16.65
2018-12-05T03:01:52.542Z,18.12
2018-12-05T03:04:19.254Z,18.00
2018-12-05T03:06:45.940Z,17.77
2018-12-05T03:09:12.656Z,18.00
2018-12-05T03:11:39.347Z,17.98
2018-12-05T03:14:06.060Z,18.52
2018-12-05T03:16:32.778Z,18.75
2018-12-05T03:18:59.474Z,19.30
2018-12-05T03:21:26.189Z,18.87
2018-12-05T03:23:52.882Z,19.87
2018-12-05T03:26:19.582Z,19.25
2018-12-05T03:28:46.308Z,19.30
2018-12-05T03:31:13.003Z,19.87
2018-12-05T03:33:39.714Z,18.42
2018-12-05T03:36:06.424Z,17.85
2018-12-05T03:38:33.132Z,18.23
2018-12-05T03:40:59.839Z,19.70
2018-12-05T03:43:26.552Z,18.02
2018-12-05T03:45:53.262Z,19.27
2018-12-05T03:48:19.957Z,18.70
2018-12-05T03:50:46.711Z,18.12
2018-12-05T03:53:13.407Z,18.70
2018-12-05T03:55:40.108Z,18.25
2018-12-05T03:58:06.926Z,18.50
2018-12-05T04:00:33.634Z,23.73
2018-12-05T04:03:00.359Z,17.60
2018-12-05T04:05:27.117Z,17.27
2018-12-05T04:07:53.848Z,18.12
2018-12-05T04:10:20.721Z,20.17
2018-12-05T04:12:53.783Z,20.00
2018-12-05T04:15:21.082Z,19.10
2018-12-05T04:17:47.827Z,19.98
2018-12-05T04:20:15.327Z,20.17
2018-12-05T04:22:42.458Z,20.23
2018-12-05T04:25:09.564Z,21.82
2018-12-05T04:27:36.261Z,21.68
2018-12-05T04:30:03.556Z,22.90
2018-12-05T04:32:30.601Z,22.58
2018-12-05T04:34:57.346Z,22.32
2018-12-05T04:37:24.046Z,21.35
2018-12-05T04:39:50.756Z,31.82
2018-12-05T04:42:17.529Z,21.55
2018-12-05T04:44:44.245Z,23.75
2018-12-05T04:47:10.992Z,32.50
2018-12-05T04:49:42.788Z,30.08
2018-12-05T04:52:09.488Z,29.23
2018-12-05T04:54:36.243Z,24.23
2018-12-05T04:57:02.937Z,44.48
2018-12-05T04:59:29.969Z,84.03
2018-12-05T05:01:56.697Z,51.00
2018-12-05T05:04:23.398Z,47.70
2018-12-05T05:06:50.087Z,28.57
2018-12-05T05:09:16.832Z,43.73
2018-12-05T05:11:43.529Z,35.38
2018-12-05T05:14:10.261Z,46.37
2018-12-05T05:16:36.954Z,39.42
2018-12-05T05:19:03.645Z,35.23
2018-12-05T05:21:30.372Z,43.13
2018-12-05T05:23:57.191Z,59.70
2018-12-05T05:26:23.888Z,100.78
2018-12-05T05:28:50.641Z,55.45
2018-12-05T05:31:17.405Z,36.08
2018-12-05T05:33:44.096Z,28.50
2018-12-05T05:36:10.827Z,32.53
2018-12-05T05:38:37.522Z,27.90
2018-12-05T05:41:04.241Z,25.10
2018-12-05T05:43:30.964Z,30.60
2018-12-05T05:45:57.658Z,69.80
2018-12-05T05:48:24.585Z,39.83
2018-12-05T05:50:53.664Z,25.92
2018-12-05T05:53:20.514Z,50.70
2018-12-05T05:55:47.272Z,39.63
2018-12-05T05:58:13.965Z,41.48
2018-12-05T06:00:41.484Z,31.35
2018-12-05T06:03:08.233Z,46.42
2018-12-05T06:05:34.940Z,40.08
2018-12-05T06:08:01.642Z,33.05
2018-12-05T06:10:28.363Z,30.05
2018-12-05T06:12:55.065Z,52.98
2018-12-05T06:15:21.794Z,36.45
2018-12-05T06:17:48.480Z,36.15
2018-12-05T06:20:15.204Z,31.00
2018-12-05T06:22:41.887Z,28.15
2018-12-05T06:25:08.586Z,32.70
2018-12-05T06:27:35.298Z,26.62
2018-12-05T06:30:02.013Z,44.95
2018-12-05T06:32:28.769Z,23.90
2018-12-05T06:34:55.497Z,27.40
2018-12-05T06:37:22.191Z,37.50
2018-12-05T06:39:48.876Z,23.00
2018-12-05T06:42:15.586Z,19.65
2018-12-05T06:44:42.329Z,25.90
2018-12-05T06:47:09.053Z,24.05
2018-12-05T06:49:35.752Z,25.62
2018-12-05T06:52:02.468Z,32.42
2018-12-05T06:54:31.953Z,27.95
2018-12-05T06:57:01.348Z,35.83
2018-12-05T06:59:30.172Z,29.92
2018-12-05T07:01:58.276Z,49.42
2018-12-05T07:04:26.419Z,48.80
2018-12-05T07:06:54.726Z,42.30
2018-12-05T07:09:24.757Z,72.20
2018-12-05T07:11:52.935Z,38.85
2018-12-05T07:14:21.298Z,44.42
2018-12-05T07:16:49.344Z,28.35
2018-12-05T07:19:16.109Z,39.27
2018-12-05T07:21:44.002Z,19.77
2018-12-05T07:24:12.619Z,18.50
2018-12-05T07:26:41.637Z,29.48
2018-12-05T07:29:09.816Z,25.68
2018-12-05T07:31:38.082Z,23.30
2018-12-05T07:34:04.839Z,23.45
2018-12-05T07:36:31.560Z,22.15
2018-12-05T07:38:58.281Z,31.48
2018-12-05T07:41:24.995Z,40.98
2018-12-05T07:43:51.689Z,36.95
2018-12-05T07:46:18.377Z,21.68
2018-12-05T07:48:45.110Z,36.93
2018-12-05T07:51:11.800Z,35.28
2018-12-05T07:53:38.516Z,26.27
2018-12-05T07:56:05.212Z,21.62
2018-12-05T07:58:31.932Z,28.02
2018-12-05T08:00:58.658Z,29.37
2018-12-05T08:03:25.442Z,26.90
2018-12-05T08:05:52.140Z,29.72
2018-12-05T08:08:18.977Z,27.98
2018-12-05T08:10:45.664Z,25.77
2018-12-05T08:13:12.366Z,25.62
2018-12-05T08:15:39.085Z,57.35
2018-12-05T08:18:05.789Z,29.80
2018-12-05T08:20:32.502Z,25.72
2018-12-05T08:22:59.184Z,36.65
2018-12-05T08:25:25.878Z,32.40
2018-12-05T08:27:52.588Z,30.97
2018-12-05T08:30:19.275Z,29.40
2018-12-05T08:32:45.990Z,36.63
2018-12-05T08:35:12.701Z,27.22
2018-12-05T08:37:39.403Z,50.70
2018-12-05T08:40:06.112Z,35.38
2018-12-05T08:42:32.807Z,41.53
2018-12-05T08:44:59.495Z,37.83
2018-12-05T08:47:26.212Z,41.77
2018-12-05T08:49:52.909Z,30.12
2018-12-05T08:52:19.624Z,34.50
2018-12-05T08:54:46.322Z,29.95
2018-12-05T08:57:13.013Z,24.45
2018-12-05T08:59:39.733Z,27.22
2018-12-05T09:02:06.422Z,28.73
2018-12-05T09:04:33.113Z,32.05
2018-12-05T09:06:59.828Z,28.38
2018-12-05T09:09:26.533Z,25.95
2018-12-05T09:11:53.215Z,26.30
2018-12-05T09:14:19.938Z,28.60
2018-12-05T09:16:46.641Z,26.17
2018-12-05T09:19:13.357Z,23.83
2018-12-05T09:21:40.062Z,22.52
2018-12-05T09:24:06.822Z,26.05
2018-12-05T09:26:33.596Z,23.90
2018-12-05T09:29:00.294Z,19.42
2018-12-05T09:31:27.030Z,19.07
2018-12-05T09:33:53.724Z,25.05
2018-12-05T09:36:20.429Z,25.85
2018-12-05T09:38:47.239Z,23.40
2018-12-05T09:41:13.938Z,22.25
2018-12-05T09:43:40.660Z,22.82
2018-12-05T09:46:07.358Z,23.35
2018-12-05T09:48:34.048Z,21.60
2018-12-05T09:51:00.758Z,20.72
2018-12-05T09:53:27.463Z,20.92
2018-12-05T09:55:54.159Z,20.62
2018-12-05T09:58:20.881Z,22.02
2018-12-05T10:00:47.580Z,21.90
2018-12-05T10:03:14.272Z,20.90
2018-12-05T10:05:40.989Z,21.25
2018-12-05T10:08:07.692Z,21.48
2018-12-05T10:10:34.384Z,19.45
2018-12-05T10:13:01.087Z,22.85
2018-12-05T10:15:27.787Z,20.30
2018-12-05T10:17:54.486Z,19.85
2018-12-05T10:20:21.223Z,20.27
2018-12-05T10:22:47.926Z,17.92
2018-12-05T10:25:14.616Z,18.55
2018-12-05T10:27:41.324Z,25.40
2018-12-05T10:30:08.038Z,18.27
2018-12-05T10:32:34.769Z,19.15
2018-12-05T10:35:01.470Z,18.05
2018-12-05T10:37:28.184Z,18.92
2018-12-05T10:39:54.884Z,18.57
2018-12-05T10:42:21.584Z,19.70
2018-12-05T10:44:48.306Z,21.17
2018-12-05T10:47:15.011Z,27.98
2018-12-05T10:49:41.728Z,22.35
2018-12-05T10:52:08.418Z,19.62
2018-12-05T10:54:35.110Z,20.55
2018-12-05T10:57:01.837Z,25.15
2018-12-05T10:59:28.588Z,25.88
2018-12-05T11:02:01.109Z,27.67
2018-12-05T11:04:33.629Z,23.38
2018-12-05T11:07:16.097Z,26.00
2018-12-05T11:09:48.577Z,21.35
2018-12-05T11:12:21.148Z,23.67
2018-12-05T11:14:53.679Z,21.37
2018-12-05T11:17:26.153Z,21.82
2018-12-05T11:19:56.721Z,21.60
2018-12-05T11:22:29.161Z,22.73
2018-12-05T11:24:57.842Z,22.15
2018-12-05T11:27:24.541Z,23.15
2018-12-05T11:29:51.280Z,22.20
2018-12-05T11:32:17.974Z,22.40
2018-12-05T11:34:44.675Z,23.92
2018-12-05T11:37:11.391Z,25.35
2018-12-05T11:39:38.125Z,24.12
2018-12-05T11:42:04.830Z,23.10
2018-12-05T11:44:31.532Z,24.98
2018-12-05T11:46:58.259Z,25.37
2018-12-05T11:49:24.958Z,23.65
2018-12-05T11:51:52.881Z,25.50
2018-12-05T11:54:19.728Z,25.00
2018-12-05T11:56:46.449Z,23.75
2018-12-05T11:59:13.142Z,25.10
2018-12-05T12:01:39.838Z,25.75
2018-12-05T12:04:06.571Z,27.10
2018-12-05T12:06:33.266Z,24.02
2018-12-05T12:08:59.962Z,24.07
2018-12-05T12:11:26.782Z,26.87
2018-12-05T12:13:53.484Z,20.45
2018-12-05T12:16:20.177Z,20.95
2018-12-05T12:18:46.905Z,20.50
2018-12-05T12:21:13.600Z,24.82
2018-12-05T12:23:40.297Z,23.30
2018-12-05T12:26:07.017Z,32.90
2018-12-05T12:28:33.715Z,24.40
2018-12-05T12:31:00.406Z,22.82
2018-12-05T12:33:27.115Z,21.90
2018-12-05T12:35:53.818Z,23.70
2018-12-05T12:38:20.504Z,18.77
2018-12-05T12:40:47.222Z,22.93
2018-12-05T12:43:13.920Z,20.27
2018-12-05T12:45:40.613Z,24.47
2018-12-05T12:48:07.333Z,24.27
2018-12-05T12:50:34.039Z,32.20
2018-12-05T12:53:00.756Z,20.77
2018-12-05T12:55:27.444Z,21.85
2018-12-05T12:57:54.148Z,23.00
2018-12-05T13:00:20.877Z,21.95
2018-12-05T13:02:47.574Z,24.00
2018-12-05T13:05:14.276Z,24.02
2018-12-05T13:07:41.001Z,25.17
2018-12-05T13:10:07.701Z,24.67
2018-12-05T13:12:34.405Z,26.05
2018-12-05T13:15:01.124Z,24.55
2018-12-05T13:17:27.827Z,28.55
2018-12-05T13:19:55.539Z,25.05
2018-12-05T13:22:22.250Z,25.68
2018-12-05T13:24:48.955Z,24.07
2018-12-05T13:27:16.550Z,27.87
2018-12-05T13:29:43.252Z,29.02
2018-12-05T13:32:09.980Z,25.92
2018-12-05T13:34:36.675Z,26.80
2018-12-05T13:37:03.401Z,29.27
2018-12-05T13:39:30.120Z,41.95
2018-12-05T13:41:56.812Z,25.95
2018-12-05T13:44:23.527Z,23.38
2018-12-05T13:46:50.220Z,27.98
2018-12-05T13:49:16.914Z,25.77
2018-12-05T13:51:43.657Z,25.27
2018-12-05T13:54:10.344Z,27.07
2018-12-05T13:56:37.039Z,25.62
2018-12-05T13:59:03.764Z,22.62
2018-12-05T14:01:30.462Z,19.80
2018-12-05T14:03:57.157Z,19.57
2018-12-05T14:06:23.877Z,20.82
2018-12-05T14:08:50.582Z,22.77
2018-12-05T14:11:17.273Z,29.25
2018-12-05T14:13:44.100Z,22.98
2018-12-05T14:16:10.820Z,39.67
2018-12-05T14:18:37.525Z,24.30
2018-12-05T14:21:04.237Z,25.52
2018-12-05T14:23:30.982Z,21.73
2018-12-05T14:25:57.678Z,26.33
2018-12-05T14:28:24.385Z,22.73
2018-12-05T14:30:51.081Z,27.85
2018-12-05T14:33:17.789Z,24.60
2018-12-05T14:35:44.508Z,21.40
2018-12-05T14:38:11.201Z,27.80
2018-12-05T14:40:37.922Z,28.83
2018-12-05T14:43:04.618Z,23.05
2018-12-05T14:45:31.295Z,25.00
2018-12-05T14:47:58.028Z,28.80
2018-12-05T14:50:24.725Z,26.87
2018-12-05T14:52:51.410Z,31.37
2018-12-05T14:55:18.121Z,25.92
2018-12-05T14:57:44.848Z,25.75
2018-12-05T15:00:12.037Z,28.35
2018-12-05T15:02:38.763Z,26.68
2018-12-05T15:05:05.545Z,31.75
2018-12-05T15:07:32.233Z,26.70
2018-12-05T15:09:58.957Z,31.23
2018-12-05T15:12:25.661Z,29.15
2018-12-05T15:14:52.377Z,30.20
2018-12-05T15:17:19.072Z,30.27
2018-12-05T15:19:45.759Z,30.72
2018-12-05T15:22:12.464Z,29.42
2018-12-05T15:24:39.177Z,30.48
2018-12-05T15:27:05.893Z,26.57
2018-12-05T15:29:32.589Z,30.85
2018-12-05T15:31:59.387Z,34.90
2018-12-05T15:34:26.180Z,33.25
2018-12-05T15:36:52.863Z,31.95
2018-12-05T15:39:19.581Z,32.55
2018-12-05T15:41:46.291Z,28.87
2018-12-05T15:44:12.981Z,29.67
2018-12-05T15:46:39.733Z,27.42
2018-12-05T15:49:06.442Z,26.57
2018-12-05T15:51:33.167Z,27.52
2018-12-05T15:53:59.891Z,28.52
2018-12-05T15:56:26.590Z,30.37
2018-12-05T15:58:53.300Z,26.75
2018-12-05T16:01:19.997Z,34.40
2018-12-05T16:03:46.705Z,27.02
2018-12-05T16:06:13.421Z,29.37
2018-12-05T16:08:40.107Z,25.15
2018-12-05T16:11:06.821Z,31.05
2018-12-05T16:13:33.521Z,28.17
2018-12-05T16:16:00.237Z,26.65
2018-12-05T16:18:26.950Z,34.70
2018-12-05T16:20:53.665Z,31.02
2018-12-05T16:23:20.353Z,30.40
2018-12-05T16:25:47.065Z,26.87
2018-12-05T16:28:13.765Z,30.08
2018-12-05T16:30:40.476Z,27.93
2018-12-05T16:33:07.166Z,29.90
2018-12-05T16:35:33.863Z,31.02
2018-12-05T16:38:00.620Z,33.92
2018-12-05T16:40:27.312Z,35.25
2018-12-05T16:42:54.210Z,36.13
2018-12-05T16:45:20.937Z,40.73
2018-12-05T16:47:47.625Z,35.60
2018-12-05T16:50:14.317Z,34.10
2018-12-05T16:52:41.032Z,36.60
2018-12-05T16:55:07.742Z,28.38
2018-12-05T16:57:34.447Z,26.37
2018-12-05T17:00:01.151Z,18.30
2018-12-05T17:02:27.872Z,17.40
2018-12-05T17:04:54.568Z,16.32
2018-12-05T17:07:21.262Z,15.83
2018-12-05T17:09:47.982Z,17.02
2018-12-05T17:12:14.676Z,17.05
2018-12-05T17:14:41.389Z,18.35
2018-12-05T17:17:08.076Z,21.12
2018-12-05T17:19:34.769Z,17.40
2018-12-05T17:22:01.488Z,22.73
2018-12-05T17:24:28.187Z,14.80
2018-12-05T17:26:54.881Z,9.98
2018-12-05T17:29:21.604Z,11.18
2018-12-05T17:31:48.294Z,10.63
2018-12-05T17:34:14.998Z,12.20
2018-12-05T17:36:41.719Z,13.80
2018-12-05T17:39:08.415Z,15.48
2018-12-05T17:41:35.109Z,22.45
2018-12-05T17:44:01.816Z,24.75
2018-12-05T17:46:28.544Z,18.87
2018-12-05T17:48:55.248Z,22.05
2018-12-05T17:51:21.960Z,22.42
2018-12-05T17:53:48.665Z,24.52
2018-12-05T17:56:15.358Z,18.45
2018-12-05T17:58:42.073Z,17.48
2018-12-05T18:01:08.822Z,16.42
2018-12-05T18:03:35.622Z,18.87
2018-12-05T18:06:02.308Z,21.87
2018-12-05T18:08:29.029Z,19.00
2018-12-05T18:10:55.727Z,18.87
2018-12-05T18:13:22.423Z,18.10
2018-12-05T18:15:49.145Z,17.62
2018-12-05T18:18:15.841Z,33.35
2018-12-05T18:20:42.547Z,26.85
2018-12-05T18:23:09.268Z,28.67
2018-12-05T18:25:35.960Z,29.10
2018-12-05T18:28:02.654Z,26.02
2018-12-05T18:30:29.375Z,24.82
2018-12-05T18:32:56.079Z,17.75
2018-12-05T18:35:22.772Z,16.82
2018-12-05T18:37:49.485Z,21.05
2018-12-05T18:40:16.185Z,19.27
2018-12-05T18:42:42.905Z,15.85
2018-12-05T18:45:09.600Z,23.80
2018-12-05T18:47:36.303Z,30.20
2018-12-05T18:50:03.714Z,27.48
2018-12-05T18:52:30.404Z,26.70
2018-12-05T18:54:57.112Z,33.45
2018-12-05T18:57:23.821Z,27.65
2018-12-05T18:59:50.526Z,28.73
2018-12-05T19:02:17.255Z,28.07
2018-12-05T19:04:43.959Z,70.90
2018-12-05T19:07:10.670Z,18.05
2018-12-05T19:09:37.355Z,15.80
2018-12-05T19:12:04.086Z,17.00
2018-12-05T19:14:48.733Z,18.67
2018-12-05T19:17:15.462Z,24.65
2018-12-05T19:19:42.163Z,15.23
2018-12-05T19:22:08.859Z,13.32
2018-12-05T19:24:35.574Z,14.47
2018-12-05T19:27:02.284Z,17.48
2018-12-05T19:29:29.006Z,17.00
2018-12-05T19:31:55.724Z,25.85
2018-12-05T19:34:22.421Z,25.52
2018-12-05T19:36:49.108Z,22.30
2018-12-05T19:39:15.823Z,23.32
2018-12-05T19:41:42.522Z,17.82
2018-12-05T19:44:09.224Z,20.23
2018-12-05T19:46:35.946Z,23.52
2018-12-05T19:49:02.641Z,16.15
2018-12-05T19:51:29.368Z,14.93
2018-12-05T19:53:56.072Z,14.65
2018-12-05T19:56:22.791Z,20.15
2018-12-05T19:58:49.487Z,25.23
2018-12-05T20:01:16.181Z,27.00
2018-12-05T20:03:42.931Z,23.30
2018-12-05T20:06:09.630Z,23.25
2018-12-05T20:08:37.270Z,25.15
2018-12-05T20:11:03.971Z,12.78
2018-12-05T20:13:30.668Z,17.25
2018-12-05T20:15:57.381Z,13.65
2018-12-05T20:18:24.096Z,16.12
2018-12-05T20:20:50.788Z,12.88
2018-12-05T20:23:17.501Z,15.45
2018-12-05T20:25:44.212Z,16.00
2018-12-05T20:28:10.913Z,13.58
2018-12-05T20:30:37.616Z,17.05
2018-12-05T20:33:04.328Z,15.15
2018-12-05T20:35:31.039Z,15.55
2018-12-05T20:37:57.791Z,17.00
2018-12-05T20:40:24.515Z,19.67
2018-12-05T20:42:51.225Z,19.50
2018-12-05T20:45:17.937Z,19.77
2018-12-05T20:47:44.640Z,16.95
2018-12-05T20:50:16.797Z,18.25
2018-12-05T20:52:43.492Z,17.48
2018-12-05T20:55:10.199Z,19.57
2018-12-05T20:57:36.921Z,16.55
2018-12-05T21:00:04.289Z,18.02
2018-12-05T21:02:30.971Z,16.17
2018-12-05T21:04:57.681Z,18.37
2018-12-05T21:07:24.372Z,16.17
2018-12-05T21:09:51.081Z,16.20
2018-12-05T21:12:17.765Z,16.00
2018-12-05T21:14:44.496Z,14.35
2018-12-05T21:17:11.183Z,16.65
2018-12-05T21:19:37.905Z,12.13
2018-12-05T21:22:04.617Z,10.78
2018-12-05T21:24:31.325Z,23.02
2018-12-05T21:26:58.041Z,10.10
2018-12-05T21:29:24.733Z,11.97
2018-12-05T21:31:51.446Z,9.98
2018-12-05T21:34:18.138Z,13.62
2018-12-05T21:36:44.830Z,61.05
2018-12-05T21:39:11.557Z,34.70
2018-12-05T21:41:38.249Z,43.87
2018-12-05T21:44:04.944Z,21.02
2018-12-05T21:46:31.656Z,24.65
2018-12-05T21:48:58.359Z,18.92
2018-12-05T21:51:25.088Z,15.88
2018-12-05T21:53:51.790Z,17.65
2018-12-05T21:56:18.480Z,15.88
2018-12-05T21:58:45.189Z,16.02
2018-12-05T22:01:11.895Z,16.70
2018-12-05T22:03:38.605Z,15.80
2018-12-05T22:06:05.304Z,13.62
2018-12-05T22:08:32.013Z,13.78
2018-12-05T22:10:58.733Z,15.40
2018-12-05T22:13:25.424Z,12.73
2018-12-05T22:15:52.134Z,15.25
2018-12-05T22:18:18.852Z,17.10
2018-12-05T22:20:45.546Z,17.65
2018-12-05T22:23:12.236Z,15.98
2018-12-05T22:25:38.944Z,16.45
2018-12-05T22:28:05.633Z,18.70
2018-12-05T22:30:32.324Z,19.60
2018-12-05T22:32:59.040Z,22.77
2018-12-05T22:35:25.736Z,22.85
2018-12-05T22:37:52.436Z,41.48
2018-12-05T22:40:19.154Z,40.00
2018-12-05T22:42:45.852Z,56.68
2018-12-05T22:45:12.577Z,41.50
2018-12-05T22:47:39.276Z,20.90
2018-12-05T22:50:06.082Z,17.17
2018-12-05T22:52:32.770Z,14.40
2018-12-05T22:54:59.467Z,17.85
2018-12-05T22:57:26.190Z,11.22
2018-12-05T22:59:52.901Z,13.08
2018-12-05T23:02:19.595Z,16.95
2018-12-05T23:04:46.280Z,20.37
2018-12-05T23:07:12.984Z,26.73
2018-12-05T23:09:39.685Z,15.18
2018-12-05T23:12:06.396Z,21.42
2018-12-05T23:14:33.084Z,59.55
2018-12-05T23:16:59.772Z,38.28
2018-12-05T23:19:26.565Z,15.95
2018-12-05T23:21:53.261Z,17.67
2018-12-05T23:24:19.952Z,11.88
2018-12-05T23:26:46.660Z,15.40
2018-12-05T23:29:13.339Z,10.98
2018-12-05T23:31:40.046Z,9.30
2018-12-05T23:34:06.740Z,11.45
2018-12-05T23:36:33.424Z,9.90
2018-12-05T23:39:00.124Z,9.43
2018-12-05T23:41:26.803Z,10.60
2018-12-05T23:43:53.510Z,9.53
2018-12-05T23:46:20.217Z,9.18
2018-12-05T23:48:46.917Z,11.78
2018-12-05T23:51:13.642Z,10.93
2018-12-05T23:53:40.330Z,10.58
2018-12-05T23:56:07.053Z,12.05
2018-12-05T23:58:33.753Z,19.67
